createdAt,value
2023-05-12T00:01:31.397Z,94912.91
2023-05-12T00:03:58.129Z,94916.16
2023-05-12T00:06:24.840Z,94926.91
2023-05-12T00:08:51.420Z,94919.19
2023-05-12T00:11:18.097Z,94925.06
2023-05-12T00:13:44.771Z,94923.22
2023-05-12T00:16:11.626Z,94922.22
2023-05-12T00:18:38.262Z,94923.06
2023-05-12T00:21:04.822Z,94918.59
2023-05-12T00:23:31.380Z,94920.63
2023-05-12T00:25:57.896Z,94921.25
2023-05-12T00:28:24.433Z,94917.75
2023-05-12T00:30:51.206Z,94923.22
2023-05-12T00:33:17.827Z,94917.38
2023-05-12T00:35:47.320Z,94914.50
2023-05-12T00:38:13.933Z,94907.03
2023-05-12T00:40:41.217Z,94908.63
2023-05-12T00:43:08.763Z,94910.50
2023-05-12T00:45:35.857Z,94898.06
2023-05-12T00:48:04.290Z,94906.38
2023-05-12T00:50:31.498Z,94904.50
2023-05-12T00:53:00.708Z,94905.53
2023-05-12T00:55:29.060Z,94905.38
2023-05-12T00:57:56.231Z,94899.84
2023-05-12T01:00:23.048Z,94906.91
2023-05-12T01:02:49.829Z,94908.72
2023-05-12T01:05:16.558Z,94904.66
2023-05-12T01:07:46.499Z,94909.31
2023-05-12T01:10:18.736Z,94905.91
2023-05-12T01:12:45.759Z,94909.00
2023-05-12T01:15:12.923Z,94903.88
2023-05-12T01:17:46.897Z,94901.25
2023-05-12T01:20:16.494Z,94904.88
2023-05-12T01:22:43.652Z,94905.47
2023-05-12T01:25:12.110Z,94907.34
2023-05-12T01:27:40.441Z,94902.75
2023-05-12T01:30:09.484Z,94898.59
2023-05-12T01:32:38.296Z,94896.16
2023-05-12T01:35:06.485Z,94888.41
2023-05-12T01:37:34.431Z,94896.31
2023-05-12T01:40:03.966Z,94896.34
2023-05-12T01:42:30.541Z,94898.97
2023-05-12T01:44:57.895Z,94902.97
2023-05-12T01:47:25.627Z,94903.81
2023-05-12T01:49:58.830Z,94897.75
2023-05-12T01:52:25.972Z,94897.16
2023-05-12T01:54:52.518Z,94897.16
2023-05-12T01:57:19.284Z,94895.72
2023-05-12T01:59:46.293Z,94903.44
2023-05-12T02:02:12.948Z,94894.97
2023-05-12T02:04:39.588Z,94901.06
2023-05-12T02:07:06.181Z,94893.47
2023-05-12T02:09:33.145Z,94897.69
2023-05-12T02:12:02.588Z,94893.53
2023-05-12T02:14:29.208Z,94897.47
2023-05-12T02:16:56.349Z,94891.00
2023-05-12T02:19:24.625Z,94893.69
2023-05-12T02:21:51.249Z,94888.63
2023-05-12T02:24:17.815Z,94891.28
2023-05-12T02:26:44.970Z,94883.13
2023-05-12T02:29:13.111Z,94890.72
2023-05-12T02:31:39.886Z,94884.41
2023-05-12T02:34:15.881Z,94882.78
2023-05-12T02:36:42.479Z,94885.44
2023-05-12T02:39:09.048Z,94886.31
2023-05-12T02:41:35.939Z,94884.34
2023-05-12T02:44:02.431Z,94884.16
2023-05-12T02:46:28.944Z,94890.00
2023-05-12T02:48:55.923Z,94895.34
2023-05-12T02:51:22.942Z,94896.13
2023-05-12T02:53:49.540Z,94892.28
2023-05-12T02:56:17.608Z,94890.84
2023-05-12T02:58:44.122Z,94900.03
2023-05-12T03:01:11.857Z,94891.22
2023-05-12T03:03:40.812Z,94891.59
2023-05-12T03:06:07.996Z,94891.66
2023-05-12T03:08:34.852Z,94896.56
2023-05-12T03:11:01.920Z,94896.72
2023-05-12T03:13:28.811Z,94896.88
2023-05-12T03:15:55.800Z,94905.69
2023-05-12T03:18:22.722Z,94899.53
2023-05-12T03:20:50.182Z,94902.25
2023-05-12T03:23:16.864Z,94901.22
2023-05-12T03:25:43.986Z,94899.41
2023-05-12T03:28:11.347Z,94901.03
2023-05-12T03:30:38.093Z,94895.66
2023-05-12T03:33:05.188Z,94896.31
2023-05-12T03:35:32.222Z,94902.59
2023-05-12T03:38:01.495Z,94902.59
2023-05-12T03:40:28.424Z,94901.78
2023-05-12T03:42:54.975Z,94902.59
2023-05-12T03:45:21.664Z,94901.19
2023-05-12T03:47:48.627Z,94900.25
2023-05-12T03:50:15.500Z,94907.66
2023-05-12T03:52:42.138Z,94892.03
2023-05-12T03:55:09.188Z,94897.94
2023-05-12T03:57:36.644Z,94901.59
2023-05-12T04:00:04.932Z,94898.31
2023-05-12T04:02:39.382Z,94901.72
2023-05-12T04:05:08.557Z,94900.44
2023-05-12T04:07:35.732Z,94908.06
2023-05-12T04:10:02.755Z,94904.19
2023-05-12T04:12:29.334Z,94906.06
2023-05-12T04:14:56.193Z,94901.38
2023-05-12T04:17:25.095Z,94898.91
2023-05-12T04:19:53.338Z,94903.38
2023-05-12T04:22:19.933Z,94902.38
2023-05-12T04:24:46.498Z,94903.16
2023-05-12T04:27:13.280Z,94908.50
2023-05-12T04:29:39.907Z,94912.56
2023-05-12T04:32:06.817Z,94906.19
2023-05-12T04:34:34.605Z,94911.47
2023-05-12T04:37:01.215Z,94918.63
2023-05-12T04:39:28.037Z,94913.53
2023-05-12T04:41:54.733Z,94923.03
2023-05-12T04:44:22.266Z,94924.25
2023-05-12T04:46:53.333Z,94915.72
2023-05-12T04:49:20.141Z,94919.06
2023-05-12T04:51:47.795Z,94929.00
2023-05-12T04:54:14.432Z,94927.22
2023-05-12T04:56:41.491Z,94923.19
2023-05-12T04:59:08.076Z,94929.69
2023-05-12T05:01:34.795Z,94926.69
2023-05-12T05:04:01.467Z,94936.88
2023-05-12T05:06:28.323Z,94930.22
2023-05-12T05:08:55.803Z,94936.09
2023-05-12T05:11:22.900Z,94930.66
2023-05-12T05:13:49.511Z,94925.84
2023-05-12T05:16:17.588Z,94933.75
2023-05-12T05:18:46.742Z,94932.56
2023-05-12T05:21:16.533Z,94927.72
2023-05-12T05:23:43.453Z,94935.47
2023-05-12T05:26:10.589Z,94936.88
2023-05-12T05:28:39.873Z,94942.00
2023-05-12T05:31:07.394Z,94941.00
2023-05-12T05:33:34.604Z,94941.59
2023-05-12T05:36:03.320Z,94941.38
2023-05-12T05:38:30.683Z,94946.06
2023-05-12T05:40:57.268Z,94938.91
2023-05-12T05:43:25.924Z,94944.56
2023-05-12T05:45:53.114Z,94947.44
2023-05-12T05:48:21.744Z,94944.13
2023-05-12T05:50:48.863Z,94932.63
2023-05-12T05:53:16.210Z,94943.50
2023-05-12T05:55:43.275Z,94943.28
2023-05-12T05:58:10.492Z,94941.72
2023-05-12T06:00:37.271Z,94934.22
2023-05-12T06:03:04.488Z,94945.25
2023-05-12T06:05:31.071Z,94945.06
2023-05-12T06:07:57.733Z,94935.88
2023-05-12T06:10:25.492Z,94943.41
2023-05-12T06:12:52.050Z,94936.81
2023-05-12T06:15:20.937Z,94950.38
2023-05-12T06:17:49.516Z,94944.53
2023-05-12T06:20:16.171Z,94954.28
2023-05-12T06:22:44.990Z,94948.38
2023-05-12T06:25:11.769Z,94948.81
2023-05-12T06:27:38.418Z,94949.06
2023-05-12T06:30:06.399Z,94951.53
2023-05-12T06:32:33.493Z,94961.84
2023-05-12T06:35:00.320Z,94962.59
2023-05-12T06:37:27.461Z,94959.22
2023-05-12T06:39:54.133Z,94955.56
2023-05-12T06:42:20.673Z,94961.09
2023-05-12T06:44:51.927Z,94967.13
2023-05-12T06:47:20.683Z,94961.47
2023-05-12T06:49:49.945Z,94963.06
2023-05-12T06:52:17.029Z,94963.66
2023-05-12T06:54:43.529Z,94954.97
2023-05-12T06:57:10.065Z,94961.69
2023-05-12T06:59:36.636Z,94965.63
2023-05-12T07:02:03.294Z,94966.44
2023-05-12T07:04:29.870Z,94965.72
2023-05-12T07:06:56.736Z,94959.25
2023-05-12T07:09:23.278Z,94956.44
2023-05-12T07:11:49.884Z,94968.84
2023-05-12T07:14:16.520Z,94961.06
2023-05-12T07:16:43.177Z,94964.53
2023-05-12T07:19:09.846Z,94964.75
2023-05-12T07:21:37.100Z,94958.31
2023-05-12T07:24:03.881Z,94963.22
2023-05-12T07:26:30.471Z,94959.34
2023-05-12T07:28:57.059Z,94958.53
2023-05-12T07:31:23.640Z,94957.94
2023-05-12T07:33:50.237Z,94962.63
2023-05-12T07:36:16.744Z,94959.78
2023-05-12T07:38:43.300Z,94960.63
2023-05-12T07:41:09.873Z,94961.03
2023-05-12T07:43:36.393Z,94962.63
2023-05-12T07:46:02.907Z,94967.34
2023-05-12T07:48:29.892Z,94967.56
2023-05-12T07:50:57.142Z,94968.59
2023-05-12T07:53:23.697Z,94970.59
2023-05-12T07:55:50.240Z,94963.31
2023-05-12T07:58:16.766Z,94960.84
2023-05-12T08:00:44.653Z,94962.06
2023-05-12T08:03:11.256Z,94967.94
2023-05-12T08:05:37.824Z,94957.56
2023-05-12T08:08:04.403Z,94956.34
2023-05-12T08:10:32.581Z,94972.25
2023-05-12T08:12:59.192Z,94964.09
2023-05-12T08:15:25.717Z,94963.28
2023-05-12T08:17:52.322Z,94965.50
2023-05-12T08:20:18.855Z,94971.22
2023-05-12T08:22:47.722Z,94959.81
2023-05-12T08:25:14.641Z,94971.22
2023-05-12T08:27:41.384Z,94972.66
2023-05-12T08:30:09.148Z,94970.00
2023-05-12T08:32:36.293Z,94977.94
2023-05-12T08:35:03.215Z,94968.41
2023-05-12T08:37:30.936Z,94972.22
2023-05-12T08:39:58.424Z,94970.22
2023-05-12T08:42:40.456Z,94970.22
2023-05-12T08:45:08.158Z,94972.25
2023-05-12T08:47:35.849Z,94973.28
2023-05-12T08:50:04.226Z,94975.38
2023-05-12T08:52:35.632Z,94969.44
2023-05-12T08:55:04.241Z,94980.63
2023-05-12T08:57:31.259Z,94978.59
2023-05-12T08:59:59.444Z,94972.69
2023-05-12T09:02:37.592Z,94973.47
2023-05-12T09:05:08.725Z,94977.94
2023-05-12T09:07:38.811Z,94971.66
2023-05-12T09:10:19.608Z,94971.84
2023-05-12T09:12:55.694Z,94974.69
2023-05-12T09:15:33.773Z,94981.19
2023-05-12T09:18:00.381Z,94975.53
2023-05-12T09:20:31.455Z,94978.78
2023-05-12T09:23:00.058Z,94981.84
2023-05-12T09:25:26.628Z,94981.84
2023-05-12T09:27:58.966Z,94983.28
2023-05-12T09:30:30.855Z,94983.09
2023-05-12T09:33:08.168Z,94976.94
2023-05-12T09:35:53.116Z,94987.97
2023-05-12T09:38:19.665Z,94983.09
2023-05-12T09:40:46.211Z,94978.81
2023-05-12T09:43:15.377Z,94985.31
2023-05-12T09:45:43.979Z,94987.59
2023-05-12T09:48:12.417Z,94983.72
2023-05-12T09:50:48.235Z,94982.09
2023-05-12T09:53:17.287Z,94984.94
2023-05-12T09:55:45.107Z,94978.84
2023-05-12T09:58:11.650Z,94980.06
2023-05-12T10:00:58.658Z,94976.19
2023-05-12T10:03:30.235Z,94981.25
2023-05-12T10:06:02.610Z,94982.09
2023-05-12T10:08:42.171Z,94976.78
2023-05-12T10:11:09.591Z,94987.00
2023-05-12T10:13:36.541Z,94982.91
2023-05-12T10:16:03.538Z,94975.97
2023-05-12T10:18:33.142Z,94981.50
2023-05-12T10:21:00.902Z,94984.53
2023-05-12T10:23:27.966Z,94989.63
2023-05-12T10:26:02.416Z,94987.78
2023-05-12T10:28:29.748Z,94991.66
2023-05-12T10:31:00.241Z,94996.53
2023-05-12T10:33:27.598Z,94988.59
2023-05-12T10:35:54.356Z,94985.53
2023-05-12T10:38:21.045Z,94992.25
2023-05-12T10:41:03.612Z,94986.97
2023-05-12T10:43:42.770Z,94984.50
2023-05-12T10:46:21.006Z,94989.19
2023-05-12T10:49:05.754Z,94990.81
2023-05-12T10:51:44.259Z,94993.47
2023-05-12T10:54:12.725Z,94992.28
2023-05-12T10:56:39.429Z,94997.38
2023-05-12T10:59:20.250Z,94990.03
2023-05-12T11:01:58.753Z,94993.66
2023-05-12T11:04:41.667Z,94988.75
2023-05-12T11:07:14.361Z,94993.47
2023-05-12T11:09:52.328Z,94997.13
2023-05-12T11:12:26.311Z,94988.13
2023-05-12T11:14:52.997Z,94996.06
2023-05-12T11:17:19.526Z,94994.44
2023-05-12T11:19:50.114Z,94996.41
2023-05-12T11:22:19.784Z,94989.59
2023-05-12T11:24:47.193Z,94987.47
2023-05-12T11:27:16.350Z,94999.22
2023-05-12T11:29:45.055Z,94988.97
2023-05-12T11:32:14.952Z,94995.09
2023-05-12T11:34:41.521Z,94998.91
2023-05-12T11:37:08.156Z,94987.31
2023-05-12T11:39:36.164Z,94988.22
2023-05-12T11:42:12.104Z,94987.75
2023-05-12T11:44:49.498Z,94988.53
2023-05-12T11:47:20.032Z,94990.72
2023-05-12T11:49:50.883Z,94991.91
2023-05-12T11:52:19.649Z,94993.75
2023-05-12T11:54:57.756Z,94996.69
2023-05-12T11:57:36.109Z,94991.88
2023-05-12T12:00:09.661Z,94994.53
2023-05-12T12:08:28.032Z,94996.22
2023-05-12T12:10:54.876Z,95004.09
2023-05-12T12:13:25.879Z,95004.72
2023-05-12T12:15:52.925Z,95004.94
2023-05-12T12:18:19.615Z,95003.13
2023-05-12T12:20:49.189Z,95006.84
2023-05-12T12:23:15.831Z,95012.38
2023-05-12T12:25:43.704Z,95016.06
2023-05-12T12:28:10.342Z,95008.91
2023-05-12T12:30:37.327Z,95013.63
2023-05-12T12:33:03.947Z,95010.34
2023-05-12T12:35:30.852Z,95010.75
2023-05-12T12:37:58.329Z,95005.84
2023-05-12T12:40:24.896Z,95008.44
2023-05-12T12:42:51.424Z,95002.66
2023-05-12T12:45:20.294Z,95001.44
2023-05-12T12:47:47.440Z,95002.19
2023-05-12T12:50:14.080Z,95009.31
2023-05-12T12:52:40.662Z,95008.41
2023-05-12T12:55:07.976Z,95004.03
2023-05-12T12:57:34.982Z,95004.19
2023-05-12T13:00:05.401Z,94999.44
2023-05-12T13:02:33.063Z,95004.88
2023-05-12T13:05:04.256Z,95006.09
2023-05-12T13:07:31.066Z,95004.97
2023-05-12T13:09:57.855Z,95005.16
2023-05-12T13:12:25.118Z,95002.13
2023-05-12T13:14:51.663Z,95005.84
2023-05-12T13:17:19.043Z,95008.84
2023-05-12T13:19:47.015Z,95006.00
2023-05-12T13:22:13.968Z,95011.03
2023-05-12T13:24:45.644Z,95003.69
2023-05-12T13:27:22.574Z,95006.47
2023-05-12T13:29:50.129Z,94997.97
2023-05-12T13:32:17.099Z,94998.97
2023-05-12T13:34:48.927Z,95002.75
2023-05-12T13:37:15.788Z,94999.53
2023-05-12T13:39:42.469Z,94994.34
2023-05-12T13:42:09.161Z,94996.63
2023-05-12T13:44:35.870Z,95002.94
2023-05-12T13:47:02.448Z,94998.75
2023-05-12T13:49:29.240Z,95002.09
2023-05-12T13:51:55.767Z,94996.78
2023-05-12T13:54:23.022Z,95004.06
2023-05-12T13:56:49.553Z,95003.28
2023-05-12T13:59:16.205Z,94998.47
2023-05-12T14:01:44.102Z,95000.50
2023-05-12T14:04:11.715Z,94998.38
2023-05-12T14:06:38.467Z,94999.38
2023-05-12T14:09:07.886Z,94999.16
2023-05-12T14:11:35.214Z,94993.91
2023-05-12T14:14:03.407Z,94993.84
2023-05-12T14:16:30.381Z,94996.16
2023-05-12T14:18:57.102Z,94992.06
2023-05-12T14:21:23.679Z,94995.75
2023-05-12T14:23:51.312Z,95000.34
2023-05-12T14:26:19.194Z,94994.06
2023-05-12T14:28:46.112Z,95005.50
2023-05-12T14:31:12.674Z,95003.81
2023-05-12T14:33:39.313Z,95000.31
2023-05-12T14:36:08.410Z,95004.91
2023-05-12T14:38:36.052Z,95005.38
2023-05-12T14:41:02.579Z,95002.69
2023-05-12T14:43:29.331Z,95000.22
2023-05-12T14:45:56.103Z,95002.03
2023-05-12T14:48:26.235Z,95007.50
2023-05-12T14:50:54.186Z,95007.91
2023-05-12T14:53:22.156Z,95008.50
2023-05-12T14:55:49.585Z,95014.88
2023-05-12T14:58:17.780Z,95016.03
2023-05-12T15:00:45.376Z,95008.34
2023-05-12T15:03:12.160Z,95008.34
2023-05-12T15:05:56.857Z,95012.59
2023-05-12T15:08:27.013Z,95009.31
2023-05-12T15:10:53.597Z,95011.59
2023-05-12T15:13:22.880Z,95010.38
2023-05-12T15:15:52.931Z,95010.28
2023-05-12T15:18:22.871Z,95017.16
2023-05-12T15:20:52.307Z,95021.22
2023-05-12T15:23:19.300Z,95022.47
2023-05-12T15:25:46.040Z,95022.31
2023-05-12T15:28:12.803Z,95017.97
2023-05-12T15:30:39.571Z,95024.06
2023-05-12T15:33:06.553Z,95025.47
2023-05-12T15:35:34.407Z,95019.00
2023-05-12T15:38:03.004Z,95026.81
2023-05-12T15:40:30.950Z,95027.34
2023-05-12T15:42:58.628Z,95029.66
2023-05-12T15:45:25.282Z,95031.00
2023-05-12T15:47:52.025Z,95033.53
2023-05-12T15:50:22.309Z,95032.94
2023-05-12T15:52:49.556Z,95033.63
2023-05-12T15:55:16.769Z,95027.84
2023-05-12T15:57:43.339Z,95030.25
2023-05-12T16:00:10.561Z,95031.00
2023-05-12T16:02:40.540Z,95026.47
2023-05-12T16:05:07.388Z,95026.34
2023-05-12T16:10:01.269Z,95031.28
2023-05-12T16:12:27.819Z,95029.00
